Time;durP1;ratioP1;P1;durP2;ratioP2;P2;SDS_P1;SDS_P2;PMS_P1;PMS_P2;Temp;Humidity;BMP_temperature;BMP_pressure;BME280_temperature;BME280_humidity;BME280_pressure;Samples;Min_cycle;Max_cycle;Signal;HPM_P1;HPM_P2
2023/04/17 03:01:09;;;;;;;65.85;27.10;;;8.10;99.90;;;;;;5618576;23;20196;-77
2023/04/17 03:03:37;;;;;;;72.07;29.27;;;8.10;99.90;;;;;;4994402;28;20085;-76
2023/04/17 03:06:03;;;;;;;71.38;27.92;;;8.10;99.90;;;;;;4977196;28;20492;-78
2023/04/17 03:08:34;;;;;;;61.97;28.20;;;8.00;99.90;;;;;;4994072;28;20034;-76
2023/04/17 03:11:01;;;;;;;78.97;30.55;;;8.00;99.90;;;;;;4976608;28;20524;-76
2023/04/17 03:13:26;;;;;;;64.25;27.05;;;8.00;99.90;;;;;;4976451;28;20121;-77
2023/04/17 03:15:52;;;;;;;75.18;29.75;;;8.00;99.90;;;;;;4976814;28;20125;-76
2023/04/17 03:18:17;;;;;;;77.32;27.73;;;8.00;99.90;;;;;;4976621;28;20045;-77
2023/04/17 03:20:43;;;;;;;74.15;28.58;;;8.00;99.90;;;;;;4977512;28;20053;-77
2023/04/17 03:23:09;;;;;;;71.68;29.23;;;8.00;99.90;;;;;;4979359;28;20038;-78
2023/04/17 03:25:35;;;;;;;72.65;29.52;;;8.00;99.90;;;;;;4980409;28;20117;-78
2023/04/17 03:28:00;;;;;;;75.15;30.17;;;8.00;99.90;;;;;;4980029;28;20042;-76
2023/04/17 03:30:26;;;;;;;63.90;28.23;;;8.00;99.90;;;;;;4980024;28;20050;-78
2023/04/17 03:32:51;;;;;;;75.40;29.42;;;8.00;99.90;;;;;;4997796;28;20096;-78
2023/04/17 03:35:17;;;;;;;104.72;31.98;;;8.00;99.90;;;;;;4997241;28;20044;-77
2023/04/17 03:37:43;;;;;;;76.78;30.25;;;8.00;99.90;;;;;;4997704;28;20514;-77
2023/04/17 03:40:09;;;;;;;74.95;30.15;;;8.00;99.90;;;;;;4963797;28;20038;-78
2023/04/17 03:42:35;;;;;;;74.25;31.08;;;8.00;99.90;;;;;;4979658;28;20174;-77
2023/04/17 03:45:02;;;;;;;82.88;31.55;;;8.00;99.90;;;;;;4979681;28;20038;-78
2023/04/17 03:47:28;;;;;;;67.20;28.25;;;8.10;99.90;;;;;;4979594;28;20061;-78
2023/04/17 03:49:53;;;;;;;83.40;31.50;;;8.10;99.90;;;;;;4997651;28;20050;-77
2023/04/17 03:52:19;;;;;;;82.93;30.75;;;8.10;99.90;;;;;;4997304;28;20077;-77
2023/04/17 03:54:47;;;;;;;94.28;32.25;;;8.10;99.90;;;;;;4997402;28;20397;-78
2023/04/17 03:57:13;;;;;;;90.82;33.00;;;8.10;99.90;;;;;;4980030;28;20379;-77
2023/04/17 03:59:39;;;;;;;99.50;33.60;;;8.10;99.90;;;;;;4997175;28;20038;-77
2023/04/17 04:02:05;;;;;;;89.45;32.80;;;8.10;99.90;;;;;;4979162;28;20588;-77
2023/04/17 04:04:30;;;;;;;114.75;32.03;;;8.00;99.90;;;;;;4963480;28;20042;-78
2023/04/17 04:07:00;;;;;;;76.82;30.42;;;8.10;99.90;;;;;;4997627;28;20038;-76
2023/04/17 04:09:26;;;;;;;106.03;32.78;;;8.00;99.90;;;;;;4979712;28;20110;-78
2023/04/17 04:11:52;;;;;;;97.68;34.28;;;8.10;99.90;;;;;;4996899;28;20042;-79
2023/04/17 04:14:18;;;;;;;99.93;30.73;;;8.00;99.90;;;;;;4979285;28;20105;-78
2023/04/17 04:16:43;;;;;;;79.13;31.35;;;8.10;99.90;;;;;;4997099;28;20121;-77
2023/04/17 04:19:09;;;;;;;88.63;32.65;;;8.10;99.90;;;;;;4979464;28;20058;-78
2023/04/17 04:21:35;;;;;;;78.43;31.35;;;8.10;99.90;;;;;;4979384;28;20504;-80
2023/04/17 04:24:01;;;;;;;97.22;31.13;;;8.10;99.90;;;;;;4979277;28;20121;-78
2023/04/17 04:26:27;;;;;;;72.72;31.73;;;8.10;99.90;;;;;;4978539;28;20050;-77
2023/04/17 04:28:53;;;;;;;97.78;33.50;;;8.10;99.90;;;;;;4978995;28;20053;-77
2023/04/17 04:31:18;;;;;;;82.70;31.95;;;8.10;99.90;;;;;;4993255;28;20030;-76
2023/04/17 04:33:45;;;;;;;88.32;32.05;;;8.10;99.90;;;;;;4995476;28;20134;-78
2023/04/17 04:36:12;;;;;;;92.25;34.42;;;8.10;99.90;;;;;;4978976;28;20180;-78
2023/04/17 04:38:38;;;;;;;76.65;31.23;;;8.20;99.90;;;;;;4996549;28;20042;-78
2023/04/17 04:41:09;;;;;;;77.50;32.28;;;8.10;99.90;;;;;;4996315;28;20034;-77
2023/04/17 04:43:35;;;;;;;69.60;30.33;;;8.10;99.90;;;;;;4978906;28;20046;-77
2023/04/17 04:46:01;;;;;;;82.00;33.90;;;8.20;99.90;;;;;;4979120;28;20043;-79
2023/04/17 04:48:27;;;;;;;68.55;30.30;;;8.20;99.90;;;;;;4978034;28;20068;-77
2023/04/17 04:50:57;;;;;;;70.72;30.65;;;8.10;99.90;;;;;;4965936;28;20104;-79
2023/04/17 04:53:23;;;;;;;66.63;30.95;;;8.10;99.90;;;;;;4960084;28;20550;-78
2023/04/17 04:55:49;;;;;;;67.72;30.38;;;8.10;99.90;;;;;;4970442;28;20121;-75
2023/04/17 04:58:15;;;;;;;81.82;31.85;;;8.10;99.90;;;;;;4977113;28;20113;-77
2023/04/17 05:00:42;;;;;;;75.50;31.35;;;8.10;99.90;;;;;;4978319;28;20509;-76
2023/04/17 05:03:08;;;;;;;77.53;30.48;;;8.10;99.90;;;;;;4978730;28;20048;-77
2023/04/17 05:05:34;;;;;;;73.25;29.95;;;8.00;99.90;;;;;;4995974;28;20125;-77
2023/04/17 05:08:01;;;;;;;72.93;30.90;;;8.10;99.90;;;;;;4977917;28;20053;-79
2023/04/17 05:10:27;;;;;;;75.30;30.23;;;8.10;99.90;;;;;;4995887;28;20046;-77
2023/04/17 05:12:53;;;;;;;84.50;31.17;;;8.10;99.90;;;;;;4978405;28;20053;-78
2023/04/17 05:15:18;;;;;;;65.18;28.95;;;8.00;99.90;;;;;;4977859;28;20112;-78
2023/04/17 05:17:44;;;;;;;74.47;29.98;;;8.00;99.90;;;;;;4977663;28;20389;-78
2023/04/17 05:20:11;;;;;;;73.05;29.17;;;8.00;99.90;;;;;;4995276;28;20045;-78
2023/04/17 05:22:37;;;;;;;63.45;29.42;;;8.00;99.90;;;;;;4978251;28;20035;-78
2023/04/17 05:25:03;;;;;;;80.97;29.25;;;8.00;99.90;;;;;;4978404;28;20485;-78
2023/04/17 05:27:29;;;;;;;73.35;28.95;;;8.10;99.90;;;;;;4978484;28;20101;-80
2023/04/17 05:29:55;;;;;;;101.50;30.88;;;8.10;99.90;;;;;;4978159;28;20160;-77
2023/04/17 05:32:21;;;;;;;110.65;28.92;;;8.10;99.90;;;;;;4978254;28;20121;-78
2023/04/17 05:34:46;;;;;;;73.07;28.55;;;8.00;99.90;;;;;;4977735;28;20089;-78
2023/04/17 05:37:12;;;;;;;71.22;28.40;;;8.00;99.90;;;;;;4995808;28;20089;-79
2023/04/17 05:39:38;;;;;;;63.70;26.65;;;7.90;99.90;;;;;;4978091;28;20077;-78
2023/04/17 05:42:03;;;;;;;76.28;29.17;;;8.00;99.90;;;;;;4995031;28;20490;-77
2023/04/17 05:44:30;;;;;;;79.13;28.38;;;8.00;99.90;;;;;;4977935;28;20049;-77
2023/04/17 05:46:58;;;;;;;77.80;27.88;;;8.00;99.90;;;;;;4978153;28;20073;-79
2023/04/17 05:49:25;;;;;;;74.00;28.60;;;8.00;99.90;;;;;;4978748;28;20078;-80
2023/04/17 05:51:51;;;;;;;93.85;27.60;;;8.00;99.90;;;;;;4994862;28;20100;-78
2023/04/17 05:54:16;;;;;;;62.25;26.80;;;8.00;99.90;;;;;;4995634;28;20034;-80
2023/04/17 05:56:42;;;;;;;59.40;26.33;;;8.00;99.90;;;;;;4995464;28;20084;-77
2023/04/17 05:59:08;;;;;;;72.70;28.05;;;8.00;99.90;;;;;;4995246;28;20393;-78
2023/04/17 06:01:34;;;;;;;68.20;28.23;;;8.00;99.90;;;;;;4977617;28;20508;-76
2023/04/17 06:04:00;;;;;;;74.70;28.88;;;8.00;99.90;;;;;;4978122;28;20128;-75
2023/04/17 06:06:26;;;;;;;72.65;27.17;;;8.10;99.90;;;;;;4977659;28;20081;-77
2023/04/17 06:08:53;;;;;;;76.00;28.00;;;8.10;99.90;;;;;;4961644;28;20124;-78
2023/04/17 06:11:19;;;;;;;69.20;27.02;;;8.20;99.90;;;;;;4994616;28;20034;-80
2023/04/17 06:13:46;;;;;;;47.60;23.45;;;8.20;99.90;;;;;;4978272;28;20046;-77
2023/04/17 06:16:12;;;;;;;53.80;24.38;;;8.20;99.90;;;;;;4977352;28;20134;-78
2023/04/17 06:18:37;;;;;;;47.53;23.27;;;8.20;99.90;;;;;;4994837;28;20462;-80
2023/04/17 06:21:03;;;;;;;52.78;23.30;;;8.20;99.90;;;;;;4977481;28;20046;-77
2023/04/17 06:23:29;;;;;;;54.72;24.48;;;8.20;99.90;;;;;;4978236;28;20049;-78
2023/04/17 06:25:55;;;;;;;53.35;24.48;;;8.20;99.90;;;;;;4977423;28;20046;-79
2023/04/17 06:28:21;;;;;;;48.90;24.13;;;8.30;99.90;;;;;;4977282;28;20037;-79
2023/04/17 06:30:47;;;;;;;46.95;23.08;;;8.30;99.90;;;;;;4976974;28;20160;-80
2023/04/17 06:33:13;;;;;;;50.22;24.08;;;8.30;99.90;;;;;;4977706;28;20092;-81
2023/04/17 06:35:39;;;;;;;46.28;22.98;;;8.30;99.90;;;;;;4994861;28;20078;-80
2023/04/17 06:38:05;;;;;;;49.35;23.95;;;8.30;99.90;;;;;;4995010;28;20053;-80
2023/04/17 06:40:31;;;;;;;50.22;23.98;;;8.30;99.90;;;;;;4961226;28;20050;-79
2023/04/17 06:42:57;;;;;;;48.90;23.20;;;8.30;99.90;;;;;;4977304;28;20058;-80
2023/04/17 06:45:22;;;;;;;49.05;23.83;;;8.40;99.90;;;;;;4961231;28;20042;-78
2023/04/17 06:47:48;;;;;;;48.03;23.75;;;8.40;99.90;;;;;;4961661;28;20071;-80
2023/04/17 06:50:15;;;;;;;49.60;24.10;;;8.50;99.90;;;;;;4995010;28;20038;-79
2023/04/17 06:52:41;;;;;;;49.40;23.95;;;8.40;99.90;;;;;;4994273;28;20065;-79
2023/04/17 06:55:08;;;;;;;50.15;24.25;;;8.40;99.90;;;;;;4961183;28;20498;-78
2023/04/17 06:57:33;;;;;;;54.53;25.30;;;8.40;99.90;;;;;;4978943;28;20038;-79
2023/04/17 06:59:59;;;;;;;46.90;22.95;;;8.50;99.90;;;;;;4981286;28;20092;-77
2023/04/17 07:02:25;;;;;;;45.80;24.90;;;8.50;99.90;;;;;;4980867;28;20541;-78
2023/04/17 07:04:52;;;;;;;52.55;25.08;;;8.50;99.90;;;;;;4980778;28;20074;-77
2023/04/17 07:07:17;;;;;;;52.63;24.15;;;8.60;99.90;;;;;;4980888;28;20121;-80
2023/04/17 07:09:44;;;;;;;51.22;24.30;;;8.60;99.90;;;;;;4981598;28;20062;-76
2023/04/17 07:12:09;;;;;;;50.80;25.42;;;8.50;99.90;;;;;;4998320;28;20050;-77
2023/04/17 07:14:35;;;;;;;52.28;24.17;;;8.50;99.90;;;;;;4981272;28;20181;-79
2023/04/17 07:17:01;;;;;;;50.78;24.40;;;8.50;99.90;;;;;;4979972;28;20045;-78
2023/04/17 07:19:27;;;;;;;47.58;23.50;;;8.60;99.90;;;;;;4980611;28;20113;-79
2023/04/17 07:21:52;;;;;;;48.70;24.85;;;8.70;99.90;;;;;;4980671;28;20126;-81
2023/04/17 07:24:18;;;;;;;48.20;23.83;;;8.70;99.90;;;;;;4998690;28;20242;-79
2023/04/17 07:26:44;;;;;;;53.53;25.70;;;8.70;99.90;;;;;;4980385;28;20482;-80
2023/04/17 07:29:09;;;;;;;49.92;24.10;;;8.80;99.90;;;;;;4980260;28;20038;-80
2023/04/17 07:31:35;;;;;;;45.03;22.63;;;8.80;99.90;;;;;;4980507;28;20042;-78
2023/04/17 07:34:01;;;;;;;46.97;24.67;;;8.80;99.90;;;;;;4965068;28;20058;-80
2023/04/17 07:36:28;;;;;;;48.80;23.83;;;8.80;99.90;;;;;;4980361;28;20042;-80
2023/04/17 07:38:54;;;;;;;50.75;24.42;;;8.80;99.90;;;;;;4980337;28;20081;-76
2023/04/17 07:41:20;;;;;;;44.25;23.75;;;8.90;99.90;;;;;;4997736;28;20035;-79
2023/04/17 07:43:45;;;;;;;48.55;24.50;;;9.00;99.90;;;;;;4980311;28;20072;-79
2023/04/17 07:46:11;;;;;;;47.75;23.40;;;9.10;99.90;;;;;;4980263;28;20097;-79
2023/04/17 07:48:36;;;;;;;47.65;24.58;;;9.10;99.90;;;;;;4980334;28;20490;-78
2023/04/17 07:51:02;;;;;;;49.28;24.48;;;9.10;99.90;;;;;;4964271;28;20057;-79
2023/04/17 07:53:28;;;;;;;48.78;24.95;;;9.10;99.90;;;;;;4980283;28;20038;-79
2023/04/17 07:55:54;;;;;;;46.45;23.75;;;9.20;99.90;;;;;;4980092;28;20050;-79
2023/04/17 07:58:21;;;;;;;43.92;23.13;;;9.20;99.90;;;;;;4997618;28;20038;-78
2023/04/17 08:00:47;;;;;;;42.30;23.98;;;9.30;99.90;;;;;;4979673;28;20043;-81
2023/04/17 08:03:13;;;;;;;45.47;23.25;;;9.40;99.90;;;;;;4979450;28;20042;-77
2023/04/17 08:05:39;;;;;;;47.65;24.40;;;9.40;99.90;;;;;;4979248;28;20034;-77
2023/04/17 08:08:05;;;;;;;52.40;24.23;;;9.30;99.90;;;;;;4979396;28;20053;-77
2023/04/17 08:10:30;;;;;;;49.63;25.58;;;9.30;99.90;;;;;;4997247;28;20042;-80
2023/04/17 08:12:56;;;;;;;43.88;24.25;;;9.30;99.90;;;;;;4979942;28;20454;-79
2023/04/17 08:15:22;;;;;;;42.47;23.98;;;9.40;99.90;;;;;;4979581;28;20462;-77
2023/04/17 08:17:48;;;;;;;46.67;24.98;;;9.50;99.90;;;;;;4979828;28;20039;-79
2023/04/17 08:20:16;;;;;;;46.63;24.67;;;9.60;99.90;;;;;;4979503;28;20046;-77
2023/04/17 08:22:44;;;;;;;44.30;24.65;;;9.60;99.90;;;;;;4979538;28;20117;-79
2023/04/17 08:25:11;;;;;;;45.08;25.23;;;9.60;99.90;;;;;;4962876;28;20538;-79
2023/04/17 08:27:39;;;;;;;46.38;24.85;;;9.60;99.90;;;;;;4996297;28;20038;-80
2023/04/17 08:30:07;;;;;;;47.33;25.92;;;9.80;99.90;;;;;;4978663;28;20180;-78
2023/04/17 08:32:44;;;;;;;41.88;23.08;;;9.80;99.90;;;;;;4979719;28;20049;-77
2023/04/17 08:35:11;;;;;;;46.47;25.42;;;9.90;99.90;;;;;;4962386;28;20496;-78
2023/04/17 08:37:37;;;;;;;46.22;24.85;;;10.00;99.90;;;;;;4979062;28;20128;-78
2023/04/17 08:40:11;;;;;;;43.22;24.83;;;10.10;99.90;;;;;;4979400;28;20173;-77
2023/04/17 08:42:38;;;;;;;45.67;24.98;;;10.10;99.90;;;;;;4963255;28;20054;-77
2023/04/17 08:45:10;;;;;;;41.85;24.17;;;10.10;99.90;;;;;;4996417;28;20046;-78
2023/04/17 08:47:38;;;;;;;40.60;24.55;;;10.20;99.90;;;;;;4979449;28;20050;-76
2023/04/17 08:50:12;;;;;;;44.55;24.52;;;10.50;99.90;;;;;;4985955;28;20046;-73
2023/04/17 08:52:41;;;;;;;43.20;23.65;;;10.80;99.90;;;;;;4972707;28;20046;-79
2023/04/17 08:55:08;;;;;;;40.45;23.95;;;10.90;99.90;;;;;;4997416;28;20073;-78
2023/04/17 08:57:34;;;;;;;43.90;24.38;;;11.10;99.90;;;;;;4962628;28;20501;-76
2023/04/17 09:00:07;;;;;;;40.47;23.17;;;11.40;99.90;;;;;;4996228;28;20042;-80
2023/04/17 09:02:49;;;;;;;39.63;22.90;;;11.70;99.90;;;;;;4995924;28;20038;-80
2023/04/17 09:05:20;;;;;;;36.90;21.60;;;11.80;99.90;;;;;;4978508;28;20046;-80
2023/04/17 09:07:45;;;;;;;37.25;22.95;;;12.10;99.90;;;;;;4995926;28;20034;-78
2023/04/17 09:10:11;;;;;;;35.88;21.83;;;12.30;99.90;;;;;;4978529;28;20048;-78
2023/04/17 09:12:40;;;;;;;40.28;22.52;;;12.60;99.90;;;;;;4996409;28;20034;-78
2023/04/17 09:15:16;;;;;;;32.40;20.52;;;12.60;99.90;;;;;;4978154;28;20057;-78
2023/04/17 09:17:41;;;;;;;;;;;12.50;99.90;;;;;;4978544;28;20601;-78
2023/04/17 09:20:08;;;;;;;;;;;12.90;99.90;;;;;;4995208;28;19925;-78
2023/04/17 09:22:35;;;;;;;36.20;21.77;;;13.50;99.90;;;;;;4977717;28;19922;-79
2023/04/17 09:25:02;;;;;;;34.38;21.88;;;13.50;99.90;;;;;;4977832;28;20038;-78
2023/04/17 09:27:28;;;;;;;37.85;22.30;;;13.30;99.90;;;;;;4978383;28;20130;-77
2023/04/17 09:30:04;;;;;;;34.38;21.10;;;13.00;99.90;;;;;;4977660;28;20042;-79
2023/04/17 09:32:32;;;;;;;35.97;22.70;;;12.90;99.90;;;;;;4979017;28;20374;-78
2023/04/17 09:35:00;;;;;;;31.75;21.48;;;13.00;99.90;;;;;;4961427;28;20038;-76
2023/04/17 09:37:44;;;;;;;32.72;21.33;;;13.20;99.90;;;;;;4977826;28;20568;-80
2023/04/17 09:40:10;;;;;;;34.05;21.15;;;13.50;99.90;;;;;;4995449;28;20031;-79
2023/04/17 09:42:53;;;;;;;34.55;22.25;;;13.90;99.90;;;;;;4977517;28;20545;-78
2023/04/17 09:45:19;;;;;;;29.50;21.63;;;14.10;99.90;;;;;;4977022;28;20569;-80
2023/04/17 09:47:49;;;;;;;28.13;20.73;;;14.70;99.90;;;;;;4977559;28;20072;-78
2023/04/17 09:50:23;;;;;;;30.30;21.08;;;15.30;99.90;;;;;;4994859;28;20089;-75
2023/04/17 09:52:51;;;;;;;38.47;21.83;;;15.80;99.90;;;;;;4961427;28;20038;-78
2023/04/17 09:55:22;;;;;;;28.17;20.73;;;16.00;99.90;;;;;;4961406;28;20536;-77
2023/04/17 09:58:00;;;;;;;30.23;21.33;;;16.10;99.90;;;;;;4977138;28;20050;-77
2023/04/17 10:00:26;;;;;;;29.30;20.45;;;16.40;99.90;;;;;;4994559;28;20042;-80
2023/04/17 10:02:53;;;;;;;33.50;22.75;;;16.50;99.90;;;;;;4977495;28;20046;-81
2023/04/17 10:05:27;;;;;;;32.33;22.10;;;16.30;99.90;;;;;;4977289;28;20049;-81
2023/04/17 10:07:54;;;;;;;31.20;21.20;;;16.20;99.90;;;;;;4977255;28;20043;-77
2023/04/17 10:10:29;;;;;;;31.58;21.73;;;15.90;99.90;;;;;;4994113;28;20093;-79
2023/04/17 10:12:57;;;;;;;31.98;21.65;;;15.70;99.90;;;;;;4961192;28;20038;-80
2023/04/17 10:15:24;;;;;;;31.77;22.10;;;15.50;99.90;;;;;;4994838;28;20605;-79
2023/04/17 10:17:55;;;;;;;29.80;20.90;;;15.60;99.90;;;;;;4976973;28;20038;-79
2023/04/17 10:20:23;;;;;;;32.40;22.70;;;15.70;99.90;;;;;;4976525;28;20038;-79
2023/04/17 10:22:53;;;;;;;29.05;21.60;;;15.70;99.90;;;;;;4994805;28;20375;-78
2023/04/17 10:25:24;;;;;;;29.88;21.85;;;15.80;99.90;;;;;;4995081;28;20042;-77
2023/04/17 10:27:59;;;;;;;27.55;20.67;;;16.00;99.90;;;;;;4976981;28;20402;-79
2023/04/17 10:30:52;;;;;;;31.90;22.48;;;16.20;99.90;;;;;;4994756;28;20046;-79
2023/04/17 10:33:20;;;;;;;26.60;20.02;;;16.50;99.90;;;;;;4976301;28;20121;-80
2023/04/17 10:35:47;;;;;;;25.50;19.20;;;16.80;99.90;;;;;;4976447;28;20050;-78
2023/04/17 10:38:12;;;;;;;28.70;19.45;;;17.10;99.90;;;;;;4976919;28;20504;-77
2023/04/17 10:40:38;;;;;;;23.05;19.10;;;17.10;99.90;;;;;;4976840;28;20106;-81
2023/04/17 10:43:21;;;;;;;26.48;20.17;;;17.30;99.90;;;;;;4976423;28;20081;-78
2023/04/17 10:46:11;;;;;;;24.08;19.88;;;17.20;99.90;;;;;;4976854;28;20046;-77
2023/04/17 10:48:39;;;;;;;25.08;18.88;;;16.90;99.90;;;;;;4976603;28;20398;-75
2023/04/17 10:51:20;;;;;;;22.23;18.08;;;16.80;99.90;;;;;;4960496;28;20089;-77
2023/04/17 10:53:50;;;;;;;23.67;18.15;;;16.60;99.90;;;;;;4976667;28;20110;-75
2023/04/17 10:56:44;;;;;;;21.48;16.58;;;16.80;99.90;;;;;;4960914;28;20505;-77
2023/04/17 10:59:22;;;;;;;23.50;18.30;;;17.20;99.90;;;;;;4977151;28;20046;-77
2023/04/17 11:01:47;;;;;;;24.13;18.38;;;17.50;99.90;;;;;;4994163;28;20042;-78
2023/04/17 11:04:21;;;;;;;24.98;18.40;;;17.60;99.90;;;;;;4976567;28;20042;-80
2023/04/17 11:06:47;;;;;;;24.35;17.73;;;17.40;99.90;;;;;;4960991;28;20126;-77
2023/04/17 11:09:14;;;;;;;22.33;16.73;;;16.90;99.90;;;;;;4976474;28;20039;-78
2023/04/17 11:11:42;;;;;;;21.83;16.45;;;16.90;99.90;;;;;;4993569;28;20073;-81
2023/04/17 11:14:09;;;;;;;22.25;16.67;;;16.90;99.90;;;;;;4960454;28;20073;-79
2023/04/17 11:16:40;;;;;;;23.00;16.98;;;16.80;99.90;;;;;;4994320;28;20121;-80
2023/04/17 11:19:08;;;;;;;25.23;17.30;;;16.90;99.90;;;;;;4976594;28;20097;-78
2023/04/17 11:21:41;;;;;;;20.13;15.77;;;17.10;99.90;;;;;;4976501;28;20056;-78
2023/04/17 11:24:07;;;;;;;21.52;15.10;;;17.30;99.90;;;;;;4977831;28;20042;-81
2023/04/17 11:26:47;;;;;;;20.50;15.18;;;17.60;99.90;;;;;;4976660;28;20501;-78
2023/04/17 11:29:17;;;;;;;21.08;15.02;;;18.00;99.90;;;;;;4976778;28;20053;-77
2023/04/17 11:31:45;;;;;;;18.65;14.18;;;18.20;99.90;;;;;;4994307;28;20169;-79
2023/04/17 11:34:12;;;;;;;29.60;16.42;;;18.20;99.90;;;;;;4976983;28;20042;-81
2023/04/17 11:36:37;;;;;;;24.83;15.90;;;18.30;99.90;;;;;;4961364;28;20391;-81
2023/04/17 11:39:03;;;;;;;20.10;13.82;;;18.50;99.90;;;;;;4976712;28;20130;-78
2023/04/17 11:41:41;;;;;;;20.17;14.23;;;18.30;99.90;;;;;;4993425;28;20513;-78
2023/04/17 11:44:14;;;;;;;19.42;14.10;;;18.10;99.90;;;;;;4996524;28;20042;-78
2023/04/17 11:46:39;;;;;;;18.10;13.57;;;18.10;99.90;;;;;;4979820;28;20149;-77
2023/04/17 11:49:06;;;;;;;20.85;13.45;;;18.30;99.90;;;;;;4979979;28;20042;-81
2023/04/17 11:51:32;;;;;;;19.83;12.82;;;18.70;99.90;;;;;;4979181;28;20085;-79
2023/04/17 11:53:58;;;;;;;15.68;12.38;;;18.90;99.90;;;;;;4979107;28;20100;-79
2023/04/17 11:56:29;;;;;;;17.10;11.85;;;19.10;99.90;;;;;;4997030;28;20042;-77
2023/04/17 11:58:57;;;;;;;15.95;11.40;;;19.30;99.90;;;;;;4979207;28;20042;-80
2023/04/17 12:01:24;;;;;;;50.75;17.38;;;19.40;99.90;;;;;;4978879;28;20038;-78
2023/04/17 12:03:57;;;;;;;25.05;13.10;;;19.60;99.90;;;;;;4979175;28;20053;-79
2023/04/17 12:06:34;;;;;;;19.75;12.63;;;20.00;99.90;;;;;;4963364;28;20120;-79
2023/04/17 12:09:00;;;;;;;18.30;11.90;;;20.20;99.90;;;;;;4979174;28;20048;-80
2023/04/17 12:11:34;;;;;;;17.23;12.13;;;20.20;99.90;;;;;;4979093;28;20125;-79
2023/04/17 12:14:01;;;;;;;18.35;12.63;;;19.90;99.90;;;;;;4963613;28;20128;-78
2023/04/17 12:16:28;;;;;;;18.02;11.93;;;19.80;99.90;;;;;;4997073;28;20069;-79
2023/04/17 12:18:57;;;;;;;19.05;11.27;;;19.70;99.90;;;;;;4979755;28;20050;-76
2023/04/17 12:21:23;;;;;;;15.02;10.57;;;19.80;99.90;;;;;;4996968;28;20432;-81
2023/04/17 12:23:49;;;;;;;15.30;10.57;;;20.00;99.90;;;;;;4996718;28;20117;-78
2023/04/17 12:26:15;;;;;;;18.23;12.00;;;20.00;99.90;;;;;;4979597;28;20125;-80
2023/04/17 12:28:41;;;;;;;16.90;11.82;;;19.90;99.90;;;;;;4996490;28;20077;-79
2023/04/17 12:31:07;;;;;;;18.88;11.82;;;19.70;99.90;;;;;;4978705;28;20053;-75
2023/04/17 12:33:32;;;;;;;15.57;11.65;;;19.50;99.90;;;;;;4996162;28;20041;-80
2023/04/17 12:36:04;;;;;;;17.85;11.55;;;19.40;99.90;;;;;;4978736;28;20057;-80
2023/04/17 12:38:30;;;;;;;19.58;12.10;;;19.30;99.90;;;;;;4979276;28;20038;-78
2023/04/17 12:40:56;;;;;;;20.17;11.25;;;19.20;99.90;;;;;;4978650;28;20054;-79
2023/04/17 12:43:21;;;;;;;17.98;11.70;;;19.30;99.90;;;;;;4978632;28;20450;-78
2023/04/17 12:45:47;;;;;;;16.60;11.32;;;19.30;99.90;;;;;;4978482;28;20042;-80
2023/04/17 12:48:14;;;;;;;14.82;11.10;;;19.30;99.90;;;;;;4996267;28;20061;-80
2023/04/17 12:50:43;;;;;;;17.60;12.45;;;19.40;99.90;;;;;;4996713;28;20034;-78
2023/04/17 12:53:11;;;;;;;15.85;11.77;;;19.50;99.90;;;;;;4996278;28;20517;-80
2023/04/17 12:55:42;;;;;;;14.90;10.63;;;19.60;99.90;;;;;;4977873;28;20081;-77
2023/04/17 12:58:10;;;;;;;14.80;10.60;;;19.70;99.90;;;;;;4978243;28;20042;-79
2023/04/17 13:00:37;;;;;;;13.88;10.52;;;20.00;99.90;;;;;;4978565;28;20486;-79
2023/04/17 13:03:03;;;;;;;19.02;11.98;;;20.30;99.90;;;;;;4995668;28;20100;-79
2023/04/17 13:05:30;;;;;;;21.80;12.60;;;20.50;99.90;;;;;;4995348;28;20045;-76
2023/04/17 13:07:56;;;;;;;15.18;11.63;;;20.60;99.90;;;;;;4995787;28;20449;-76
2023/04/17 13:10:22;;;;;;;16.98;10.98;;;20.40;99.90;;;;;;4961433;28;20125;-77
2023/04/17 13:12:48;;;;;;;16.73;11.57;;;20.30;99.90;;;;;;4977941;28;20208;-79
2023/04/17 13:15:13;;;;;;;16.58;11.82;;;20.10;99.90;;;;;;4977689;28;20402;-77
2023/04/17 13:17:40;;;;;;;15.40;11.35;;;19.90;99.90;;;;;;4978225;28;20042;-79
2023/04/17 13:20:06;;;;;;;14.43;10.38;;;20.10;99.90;;;;;;4978432;28;20030;-80
2023/04/17 13:22:32;;;;;;;15.65;10.82;;;20.20;99.90;;;;;;4995201;28;20108;-78
2023/04/17 13:24:58;;;;;;;15.57;10.45;;;20.30;99.90;;;;;;4977435;28;20116;-79
2023/04/17 13:27:24;;;;;;;17.83;10.45;;;20.50;99.90;;;;;;4977783;28;20128;-76
2023/04/17 13:29:51;;;;;;;14.63;10.48;;;20.70;99.90;;;;;;4977509;28;20046;-79
2023/04/17 13:32:17;;;;;;;15.13;11.05;;;20.90;99.90;;;;;;4995332;28;20047;-78
2023/04/17 13:34:42;;;;;;;15.00;11.40;;;21.10;99.90;;;;;;4995074;28;20169;-74
2023/04/17 13:37:09;;;;;;;15.00;10.55;;;21.10;99.90;;;;;;4977430;28;20108;-76
2023/04/17 13:39:35;;;;;;;13.95;10.50;;;21.20;99.90;;;;;;4977639;28;20055;-77
2023/04/17 13:42:01;;;;;;;13.88;10.13;;;20.90;99.90;;;;;;4977441;28;20043;-77
2023/04/17 13:44:27;;;;;;;15.35;10.15;;;20.70;99.90;;;;;;4977818;28;20044;-77
2023/04/17 13:46:53;;;;;;;17.00;9.75;;;20.80;99.90;;;;;;4976895;28;20397;-75
2023/04/17 13:49:20;;;;;;;17.00;10.20;;;21.10;99.90;;;;;;4977405;28;20569;-76
2023/04/17 13:51:46;;;;;;;14.55;10.57;;;21.40;99.90;;;;;;4977396;28;20391;-78
2023/04/17 13:54:11;;;;;;;13.40;9.93;;;21.50;99.90;;;;;;4977225;28;20042;-76
2023/04/17 13:56:37;;;;;;;16.83;11.07;;;21.60;99.90;;;;;;4994761;28;20122;-75
2023/04/17 13:59:04;;;;;;;15.68;10.18;;;21.40;99.80;;;;;;4977275;28;20207;-77
2023/04/17 14:01:30;;;;;;;14.50;10.88;;;21.40;99.90;;;;;;4994434;28;20046;-76
2023/04/17 14:03:59;;;;;;;16.23;10.63;;;21.40;99.90;;;;;;4977311;28;20125;-76
2023/04/17 14:06:28;;;;;;;14.55;9.98;;;21.20;99.70;;;;;;4994307;28;20038;-75
2023/04/17 14:08:55;;;;;;;16.40;9.60;;;21.00;99.30;;;;;;4977059;28;20134;-75
2023/04/17 14:11:21;;;;;;;12.93;9.40;;;21.00;99.90;;;;;;4976637;28;20490;-76
2023/04/17 14:13:47;;;;;;;12.57;9.52;;;21.20;99.60;;;;;;4976440;28;20057;-76
2023/04/17 14:16:12;;;;;;;16.10;9.43;;;21.50;98.70;;;;;;4977141;28;20046;-74
2023/04/17 14:18:38;;;;;;;13.35;8.75;;;21.60;97.80;;;;;;4977703;28;20077;-75
2023/04/17 14:21:04;;;;;;;14.65;10.05;;;21.70;97.70;;;;;;4994718;28;20065;-77
2023/04/17 14:23:29;;;;;;;11.85;9.40;;;21.90;98.00;;;;;;4976886;28;20097;-74
2023/04/17 14:25:55;;;;;;;14.93;10.23;;;22.00;97.70;;;;;;4994021;28;20072;-76
2023/04/17 14:28:22;;;;;;;16.05;9.65;;;22.10;97.10;;;;;;4994442;28;20394;-76
2023/04/17 14:30:48;;;;;;;14.32;9.70;;;22.10;96.20;;;;;;4977182;28;20064;-76
2023/04/17 14:33:13;;;;;;;15.27;10.32;;;22.10;96.20;;;;;;4976477;28;20546;-77
2023/04/17 14:35:39;;;;;;;38.28;21.65;;;21.90;96.10;;;;;;4976663;28;20125;-75
2023/04/17 14:38:05;;;;;;;16.02;10.60;;;22.00;96.10;;;;;;4976481;28;20490;-77
2023/04/17 14:40:31;;;;;;;16.60;11.38;;;21.90;95.10;;;;;;4978965;28;20145;-76
2023/04/17 14:42:57;;;;;;;19.42;10.32;;;21.80;95.60;;;;;;4962905;28;20494;-74
2023/04/17 14:45:23;;;;;;;13.00;9.30;;;21.70;96.00;;;;;;4977606;28;20057;-77
2023/04/17 14:47:48;;;;;;;14.32;9.30;;;21.70;95.60;;;;;;4994498;28;20042;-76
2023/04/17 14:50:14;;;;;;;13.35;9.80;;;21.80;95.90;;;;;;4994527;28;20031;-77
2023/04/17 14:52:40;;;;;;;33.35;10.18;;;21.80;95.60;;;;;;4977004;28;20070;-75
2023/04/17 14:55:06;;;;;;;16.23;10.00;;;21.90;95.80;;;;;;4994854;28;20038;-76
2023/04/17 14:57:32;;;;;;;13.52;9.27;;;22.00;95.10;;;;;;4994308;28;20041;-76
2023/04/17 14:59:58;;;;;;;16.08;10.77;;;22.10;94.30;;;;;;4975993;28;20042;-76
2023/04/17 15:02:23;;;;;;;13.63;10.07;;;21.90;93.70;;;;;;4976368;28;20406;-74
2023/04/17 15:04:50;;;;;;;13.88;10.02;;;22.00;93.80;;;;;;4960286;28;20076;-77
2023/04/17 15:07:16;;;;;;;14.20;9.18;;;22.00;93.60;;;;;;4976502;28;20047;-76
2023/04/17 15:09:41;;;;;;;18.25;10.80;;;21.80;93.70;;;;;;4976595;28;20061;-76
2023/04/17 15:12:07;;;;;;;14.63;10.00;;;21.90;93.30;;;;;;4976259;28;20041;-75
2023/04/17 15:14:33;;;;;;;13.57;9.90;;;21.80;93.10;;;;;;4994437;28;20117;-76
2023/04/17 15:17:01;;;;;;;13.82;9.20;;;21.90;93.20;;;;;;4976684;28;20047;-75
2023/04/17 15:19:26;;;;;;;14.40;10.35;;;21.80;92.80;;;;;;4997405;28;20089;-77
2023/04/17 15:21:52;;;;;;;14.15;9.50;;;21.90;92.10;;;;;;4980270;28;20046;-76
2023/04/17 15:24:18;;;;;;;12.82;9.88;;;21.80;92.10;;;;;;4979960;28;20050;-76
2023/04/17 15:26:43;;;;;;;12.25;9.48;;;21.60;92.70;;;;;;4980111;28;20113;-75
2023/04/17 15:29:09;;;;;;;13.02;9.20;;;21.50;92.60;;;;;;4980221;28;20042;-77
2023/04/17 15:31:36;;;;;;;12.63;9.13;;;21.60;92.20;;;;;;4980721;28;20081;-76
2023/04/17 15:34:02;;;;;;;13.43;9.02;;;21.70;92.00;;;;;;4997655;28;20074;-75